Tipton, Michigan
Current Conditions -  °F | °C
As of 1:53 AM on Wednesday 22 Oct 2014 (Local Time) from KADG Reporting Station
Overcast Overcast  
Wind Chill: 37°   Ceiling: 2200
Heat Index: 43°   Visibility: 10mi
Dew Point: 36°   Wind: 12mph
Humidity: 76%   Direction: 10°N
Pressure: 30.23"   Gusts: NA
Location:  42.02°N, 84.06°W
Report Text: KADG 220553Z AUTO 01010KT 10SM BKN022 OVC029 06/02 A3023 RMK AO2 SLP242 T00610022 10072 20061 58001
Loading
Personal Weather Stations






























Interactive Weather Map
Tropical Storm Tracking
New forecast layout! Learn more

10-Day Weather Forecast

Advertisements
Track Severe Weather on mobile